Time;durP1;ratioP1;P1;durP2;ratioP2;P2;SDS_P1;SDS_P2;PMS_P1;PMS_P2;Temp;Humidity;BMP_temperature;BMP_pressure;BME280_temperature;BME280_humidity;BME280_pressure;Samples;Min_cycle;Max_cycle;Signal;HPM_P1;HPM_P2
2023/10/19 00:01:25;;;;;;;72.23;3.97;;;;;;;22.44;56.98;98160.97;7316191;19;131101;-35
2023/10/19 00:03:53;;;;;;;51.95;2.97;;;;;;;22.43;57.47;98146.22;7315383;19;131275;-35
2023/10/19 00:06:18;;;;;;;23.83;1.48;;;;;;;22.43;57.19;98145.44;7316647;19;128949;-32
2023/10/19 00:08:44;;;;;;;69.87;3.87;;;;;;;22.27;56.98;98114.16;7314814;19;129217;-34
2023/10/19 00:11:20;;;;;;;13.63;1.07;;;;;;;22.44;57.12;98141.81;7313994;19;130637;-35
2023/10/19 00:13:46;;;;;;;63.63;3.67;;;;;;;22.41;57.44;98142.16;7316465;19;130468;-35
2023/10/19 00:16:22;;;;;;;47.10;2.72;;;;;;;22.40;54.76;98132.66;7316807;19;129005;-34
2023/10/19 00:18:49;;;;;;;59.08;3.25;;;;;;;22.50;54.13;98128.81;7314007;19;130264;-33
2023/10/19 00:23:47;;;;;;;56.00;2.95;;;;;;;22.71;53.83;98112.41;7317368;19;129679;-35
2023/10/19 00:26:19;;;;;;;65.78;3.50;;;;;;;22.48;54.24;98094.13;7316057;19;128812;-34
2023/10/19 00:28:46;;;;;;;68.95;3.75;;;;;;;22.51;55.58;98109.47;7315307;19;128882;-32
2023/10/19 00:31:13;;;;;;;59.15;3.35;;;;;;;22.48;55.89;98112.44;7311955;19;130282;-36
2023/10/19 00:33:39;;;;;;;30.27;1.90;;;;;;;22.47;56.32;98110.00;7315387;19;131216;-36
2023/10/19 00:36:08;;;;;;;44.72;2.45;;;;;;;22.36;56.06;98084.28;7315802;19;128806;-36
2023/10/19 00:38:50;;;;;;;39.53;2.22;;;;;;;22.33;56.99;98087.28;7315726;19;129312;-35
2023/10/19 00:41:22;;;;;;;34.38;1.98;;;;;;;22.44;56.59;98105.97;7313204;19;130896;-35
2023/10/19 00:43:57;;;;;;;41.22;2.60;;;;;;;22.44;57.05;98094.66;7314216;19;131650;-32
2023/10/19 00:46:26;;;;;;;30.35;1.80;;;;;;;22.42;56.68;98091.41;7315369;19;128854;-36
2023/10/19 00:48:57;;;;;;;51.80;3.08;;;;;;;22.41;57.17;98089.81;7314567;19;129121;-35
2023/10/19 00:51:55;;;;;;;52.42;2.95;;;;;;;22.41;58.31;98071.47;7312920;19;130406;-35
2023/10/19 00:54:41;;;;;;;37.88;2.22;;;;;;;22.37;57.57;98075.44;7313688;19;129591;-33
2023/10/19 00:57:13;;;;;;;28.00;1.80;;;;;;;22.41;57.60;98072.25;7315224;19;129115;-35
2023/10/19 01:00:00;;;;;;;45.85;2.63;;;;;;;22.40;57.78;98062.78;7314165;19;129487;-33
2023/10/19 01:04:59;;;;;;;58.00;3.13;;;;;;;22.47;53.64;98057.63;7314023;19;129194;-36
2023/10/19 01:07:30;;;;;;;39.22;2.17;;;;;;;22.58;53.66;98071.13;7315638;19;129094;-35
2023/10/19 01:09:59;;;;;;;55.50;3.08;;;;;;;;;;7312867;19;129294;-34
2023/10/19 01:12:33;;;;;;;58.15;3.22;;;;;;;22.56;54.66;98061.81;7314215;19;129923;-36
2023/10/19 01:15:07;;;;;;;31.95;1.75;;;;;;;22.50;55.28;98054.66;7313870;19;129517;-36
2023/10/19 01:17:39;;;;;;;45.47;2.42;;;;;;;22.47;55.85;98041.94;7314428;19;129073;-35
2023/10/19 01:20:20;;;;;;;19.67;1.23;;;;;;;22.35;56.49;98022.44;7313114;19;128829;-36
2023/10/19 01:22:53;;;;;;;48.47;2.60;;;;;;;22.43;56.86;98035.44;7314329;19;130223;-32
2023/10/19 01:25:24;;;;;;;27.05;1.55;;;;;;;22.43;57.01;98041.47;7314428;19;130329;-33
2023/10/19 01:27:56;;;;;;;69.25;3.65;;;;;;;22.39;57.01;98034.19;7311787;19;130889;-37
2023/10/19 01:30:21;;;;;;;43.25;2.55;;;;;;;22.42;57.06;98023.31;7310794;19;130161;-36
2023/10/19 01:32:47;;;;;;;39.33;2.40;;;;;;;22.40;56.82;98020.91;7313367;19;129450;-35
2023/10/19 01:35:12;;;;;;;56.03;3.08;;;;;;;22.40;56.82;98035.78;7314444;19;129695;-34
2023/10/19 01:37:38;;;;;;;45.53;2.60;;;;;;;22.41;57.13;98016.47;7314306;19;129255;-35
2023/10/19 01:40:04;;;;;;;22.40;1.43;;;;;;;22.39;57.62;98015.84;7309607;19;129834;-35
2023/10/19 01:42:30;;;;;;;36.80;2.22;;;;;;;22.39;57.86;98018.47;7314619;19;129443;-35
2023/10/19 01:44:56;;;;;;;44.60;2.70;;;;;;;22.39;57.89;98013.22;7313803;19;131321;-34
2023/10/19 01:47:22;;;;;;;55.97;2.97;;;;;;;22.39;57.54;98013.22;7310900;19;129029;-36
2023/10/19 01:49:52;;;;;;;87.45;4.63;;;;;;;22.41;54.61;98016.47;7310844;19;129023;-36
2023/10/19 01:52:17;;;;;;;29.27;1.60;;;;;;;22.45;54.22;98012.47;7310752;19;129496;-36
2023/10/19 01:54:43;;;;;;;39.70;2.20;;;;;;;22.59;53.55;98014.31;7311023;19;129465;-35
2023/10/19 01:57:08;;;;;;;42.03;2.43;;;;;;;22.65;54.06;98003.09;7313329;19;128944;-35
2023/10/19 01:59:34;;;;;;;29.73;1.65;;;;;;;22.43;54.34;97965.53;7312787;19;129096;-33
2023/10/19 02:01:59;;;;;;;60.67;3.08;;;;;;;22.49;55.15;97987.56;7309558;19;131232;-35
2023/10/19 02:04:25;;;;;;;38.23;2.20;;;;;;;22.47;55.79;97989.53;7313756;19;130325;-34
2023/10/19 02:06:54;;;;;;;60.80;3.55;;;;;;;22.44;56.30;97968.97;7305913;19;128794;-34
2023/10/19 02:09:28;;;;;;;37.83;2.15;;;;;;;22.39;56.31;97968.72;7312507;19;129000;-34
2023/10/19 02:11:56;;;;;;;94.32;4.93;;;;;;;22.41;56.59;97975.38;7309738;19;130309;-35
2023/10/19 02:14:24;;;;;;;48.03;2.88;;;;;;;22.36;56.71;97967.25;7311633;19;129310;-33
2023/10/19 02:16:52;;;;;;;63.38;3.53;;;;;;;22.24;57.00;97946.97;7312003;19;129064;-35
2023/10/19 02:19:21;;;;;;;41.90;2.47;;;;;;;22.38;57.36;97960.03;7312961;19;130223;-35
2023/10/19 02:22:13;;;;;;;55.63;3.15;;;;;;;22.39;57.65;97961.69;7312746;19;130157;-33
2023/10/19 02:24:39;;;;;;;74.20;3.92;;;;;;;22.39;57.08;97950.38;7309661;19;129437;-34
2023/10/19 02:27:04;;;;;;;36.73;2.00;;;;;;;22.40;57.24;97942.34;7312824;19;129074;-35
2023/10/19 02:29:30;;;;;;;36.30;2.00;;;;;;;22.37;57.40;97942.72;7311472;19;128770;-32
2023/10/19 02:31:57;;;;;;;62.60;3.60;;;;;;;22.39;57.24;97934.69;7309884;19;130387;-34
2023/10/19 02:34:22;;;;;;;17.13;1.17;;;;;;;22.33;55.31;97930.19;7312994;19;130604;-35
2023/10/19 02:36:48;;;;;;;54.75;3.10;;;;;;;22.45;54.22;97920.81;7311340;19;129240;-34
2023/10/19 02:39:14;;;;;;;38.67;2.20;;;;;;;22.50;53.62;97924.53;7311176;19;129243;-36
2023/10/19 02:41:41;;;;;;;36.75;2.15;;;;;;;22.60;52.91;97916.38;7312610;19;129277;-35
2023/10/19 02:46:52;;;;;;;35.92;2.05;;;;;;;22.50;55.37;97900.13;7311554;19;129466;-35
2023/10/19 02:49:19;;;;;;;44.60;2.33;;;;;;;22.48;55.44;97897.69;7310887;19;129118;-34
2023/10/19 02:51:45;;;;;;;42.65;2.25;;;;;;;22.44;55.90;97890.41;7310370;19;130269;-34
2023/10/19 02:54:24;;;;;;;33.43;1.93;;;;;;;22.41;56.01;97880.31;7312569;19;130349;-35
2023/10/19 02:56:56;;;;;;;51.13;2.70;;;;;;;22.40;56.52;97878.69;7310953;19;128838;-35
2023/10/19 02:59:24;;;;;;;55.45;3.13;;;;;;;22.40;56.37;97869.03;7308203;19;128987;-35
2023/10/19 03:01:51;;;;;;;29.50;1.90;;;;;;;22.38;56.71;97864.97;7310948;19;129726;-35
2023/10/19 03:04:17;;;;;;;38.97;2.25;;;;;;;22.39;56.70;97861.34;7311673;19;130383;-35
2023/10/19 03:06:43;;;;;;;52.90;3.07;;;;;;;22.38;57.40;97846.66;7316187;19;128878;-34
2023/10/19 03:09:22;;;;;;;45.47;2.53;;;;;;;22.37;57.13;97858.09;7317347;19;129235;-33
2023/10/19 03:11:52;;;;;;;38.58;2.17;;;;;;;22.38;56.76;97852.69;7315976;19;129408;-35
2023/10/19 03:14:18;;;;;;;42.50;2.35;;;;;;;22.27;56.87;97840.09;7317565;19;130551;-35
2023/10/19 03:16:43;;;;;;;40.33;2.23;;;;;;;22.37;57.85;97858.09;7317484;19;128799;-35
2023/10/19 03:19:09;;;;;;;22.83;1.40;;;;;;;22.37;57.25;97858.09;7317483;19;128755;-33
2023/10/19 03:21:48;;;;;;;34.23;1.90;;;;;;;22.30;56.35;97841.50;7316548;19;129579;-32
2023/10/19 03:24:35;;;;;;;39.80;2.28;;;;;;;22.27;54.27;97827.00;7318849;19;130730;-34
2023/10/19 03:27:23;;;;;;;66.50;3.72;;;;;;;22.51;53.71;97844.16;7318087;19;128763;-33
2023/10/19 03:29:55;;;;;;;30.75;1.65;;;;;;;22.66;53.49;97844.94;7316290;19;129497;-36
2023/10/19 03:32:28;;;;;;;57.88;3.00;;;;;;;22.55;54.23;97832.31;7313841;19;130885;-35
2023/10/19 03:34:57;;;;;;;43.78;2.50;;;;;;;22.49;55.20;97843.53;7318506;19;130424;-34
2023/10/19 03:37:31;;;;;;;37.15;2.13;;;;;;;22.34;56.07;97832.31;7317378;19;128984;-35
2023/10/19 03:39:57;;;;;;;56.83;3.22;;;;;;;22.42;55.85;97845.28;7316139;19;129931;-35
2023/10/19 03:42:26;;;;;;;33.47;2.00;;;;;;;22.26;56.08;97827.19;7316085;19;130106;-34
2023/10/19 03:44:55;;;;;;;37.08;2.15;;;;;;;22.39;56.59;97849.09;7315808;19;129142;-35
2023/10/19 03:47:25;;;;;;;30.52;1.67;;;;;;;22.38;56.82;97844.03;7317721;19;129022;-35
2023/10/19 03:49:50;;;;;;;46.17;2.72;;;;;;;22.37;57.30;97847.63;7314984;19;129556;-35
2023/10/19 03:54:41;;;;;;;55.07;2.93;;;;;;;22.37;57.05;97848.44;7316571;19;129140;-32
2023/10/19 03:57:19;;;;;;;36.77;2.00;;;;;;;22.36;57.26;97852.06;7316668;19;130765;-36
2023/10/19 03:59:44;;;;;;;33.55;1.90;;;;;;;22.37;56.91;97850.25;7316625;19;129021;-33
2023/10/19 04:02:13;;;;;;;17.40;1.10;;;;;;;22.36;57.10;97843.41;7317541;19;130203;-34
2023/10/19 04:04:43;;;;;;;49.13;2.80;;;;;;;22.35;57.32;97844.38;7317256;19;130342;-35
2023/10/19 04:07:21;;;;;;;54.13;3.05;;;;;;;22.16;55.12;97816.22;7315796;19;128921;-35
2023/10/19 04:09:57;;;;;;;39.17;2.30;;;;;;;22.40;54.05;97852.50;7316405;19;130344;-33
2023/10/19 04:12:30;;;;;;;34.22;1.88;;;;;;;22.50;53.46;97847.75;7314536;19;130112;-34
2023/10/19 04:14:56;;;;;;;79.03;4.43;;;;;;;22.58;54.01;97842.41;7315515;19;131078;-35
2023/10/19 04:17:23;;;;;;;55.78;2.88;;;;;;;22.50;55.41;97834.66;7312784;19;128787;-33
2023/10/19 04:19:51;;;;;;;;;;;;;;;22.46;56.38;97849.16;7315356;19;129113;-34
2023/10/19 04:22:24;;;;;;;76.30;4.10;;;;;;;22.40;55.80;97834.97;7314726;19;130363;-35
2023/10/19 04:24:52;;;;;;;49.22;2.63;;;;;;;22.42;56.36;97824.31;7313423;19;131376;-35
2023/10/19 04:27:21;;;;;;;47.05;2.53;;;;;;;22.40;56.60;97811.41;7314731;19;129081;-35
2023/10/19 04:29:49;;;;;;;43.50;2.53;;;;;;;22.40;56.70;97807.97;7313088;19;129251;-35
2023/10/19 04:32:14;;;;;;;37.83;2.08;;;;;;;22.37;56.69;97805.75;7313418;19;130838;-33
2023/10/19 04:34:40;;;;;;;34.23;1.93;;;;;;;22.37;56.66;97801.31;7315453;19;129220;-35
2023/10/19 04:37:06;;;;;;;35.28;2.05;;;;;;;22.33;57.70;97797.44;7315655;19;128857;-34
2023/10/19 04:39:33;;;;;;;68.68;3.53;;;;;;;22.20;58.75;97806.97;7311849;19;128830;-34
2023/10/19 04:41:58;;;;;;;69.93;4.10;;;;;;;22.16;58.60;97822.28;7311906;19;129237;-35
2023/10/19 04:44:25;;;;;;;33.83;2.00;;;;;;;22.30;58.22;97826.63;7315368;19;130397;-35
2023/10/19 04:46:50;;;;;;;36.87;2.10;;;;;;;22.66;56.98;97831.84;7315357;19;129322;-34
2023/10/19 04:49:16;;;;;;;17.23;1.13;;;;;;;22.89;56.56;97838.44;7312190;19;129302;-34
2023/10/19 04:51:43;;;;;;;46.70;2.53;;;;;;;23.05;55.41;97837.38;7313209;19;130869;-35
2023/10/19 04:54:08;;;;;;;;;;;;;;;23.22;54.21;97822.97;7313797;19;131205;-34
2023/10/19 04:56:35;;;;;;;47.28;2.60;;;;;;;23.46;54.40;97819.88;7312969;19;129172;-36
2023/10/19 04:59:02;;;;;;;74.75;4.20;;;;;;;23.56;54.19;97811.66;7313801;19;129044;-35
2023/10/19 05:01:28;;;;;;;44.78;2.50;;;;;;;23.60;53.96;97805.03;7311789;19;130496;-33
2023/10/19 05:03:53;;;;;;;30.97;1.70;;;;;;;23.53;53.55;97784.00;7312749;19;130349;-35
2023/10/19 05:06:19;;;;;;;68.40;3.77;;;;;;;23.72;54.04;97804.25;7311813;19;129117;-34
2023/10/19 05:08:45;;;;;;;13.00;0.90;;;;;;;23.59;54.27;97782.41;7308871;19;129037;-35
2023/10/19 05:11:10;;;;;;;68.03;3.83;;;;;;;23.81;53.96;97810.97;7310960;19;130873;-35
2023/10/19 05:13:35;;;;;;;49.00;2.53;;;;;;;23.79;54.04;97805.09;7309043;19;130458;-32
2023/10/19 05:16:01;;;;;;;103.97;5.93;;;;;;;23.70;53.98;97780.03;7308400;19;129692;-35
2023/10/19 05:18:26;;;;;;;71.63;4.32;;;;;;;23.84;53.97;97797.44;7310139;19;129560;-34
2023/10/19 05:20:55;;;;;;;59.60;3.00;;;;;;;23.85;54.40;97788.53;7309883;19;130041;-35
2023/10/19 05:23:24;;;;;;;33.00;1.92;;;;;;;23.89;54.27;97800.28;7310371;19;130962;-35
2023/10/19 05:25:52;;;;;;;47.33;2.58;;;;;;;23.96;54.04;97795.88;7312135;19;129205;-34
2023/10/19 05:28:18;;;;;;;53.67;3.05;;;;;;;23.95;52.87;97799.47;7309985;19;129064;-34
2023/10/19 05:30:44;;;;;;;45.63;2.58;;;;;;;24.03;53.51;97786.19;7309638;19;130894;-34
2023/10/19 05:33:09;;;;;;;43.43;2.37;;;;;;;24.02;53.59;97763.59;7313474;19;129347;-33
2023/10/19 05:35:40;;;;;;;38.80;2.30;;;;;;;24.10;53.45;97794.91;7314942;19;130118;-35
2023/10/19 05:38:05;;;;;;;64.07;3.50;;;;;;;24.15;53.16;97794.31;7310858;19;129220;-34
2023/10/19 05:40:31;;;;;;;38.23;2.13;;;;;;;24.15;54.00;97784.63;7311629;19;129424;-35
2023/10/19 05:43:01;;;;;;;74.23;3.93;;;;;;;24.14;53.96;97777.75;7311987;19;129591;-35
2023/10/19 05:45:27;;;;;;;44.30;2.50;;;;;;;24.16;53.94;97777.56;7313218;19;128912;-34
2023/10/19 05:47:53;;;;;;;63.25;3.38;;;;;;;24.13;53.74;97778.75;7309439;19;129047;-35
2023/10/19 05:50:19;;;;;;;29.97;1.70;;;;;;;24.16;54.14;97780.19;7309115;19;130242;-34
2023/10/19 05:52:45;;;;;;;28.57;1.63;;;;;;;24.19;53.94;97782.41;7311731;19;131061;-34
2023/10/19 05:55:10;;;;;;;51.88;2.85;;;;;;;24.19;53.77;97775.34;7312502;19;129092;-35
2023/10/19 05:57:40;;;;;;;43.23;2.47;;;;;;;24.21;54.33;97773.31;7312809;19;129187;-35
2023/10/19 06:00:12;;;;;;;51.15;2.90;;;;;;;24.22;54.31;97776.75;7306848;19;130401;-35
2023/10/19 06:02:44;;;;;;;32.05;1.83;;;;;;;24.14;54.36;97785.63;7313095;19;131258;-35
2023/10/19 06:05:10;;;;;;;55.20;2.97;;;;;;;24.05;52.50;97760.56;7314313;19;129487;-35
2023/10/19 06:07:36;;;;;;;36.83;2.10;;;;;;;24.12;54.09;97790.28;7313408;19;129454;-34
2023/10/19 06:10:04;;;;;;;64.47;3.57;;;;;;;24.02;54.09;97792.47;7309777;19;129093;-35
2023/10/19 06:12:33;;;;;;;40.35;2.28;;;;;;;23.88;54.84;97798.66;7309313;19;131208;-35
2023/10/19 06:15:00;;;;;;;38.42;2.28;;;;;;;23.79;55.33;97797.22;7310987;19;128975;-33
2023/10/19 06:17:26;;;;;;;23.00;1.42;;;;;;;23.58;55.03;97776.38;7312943;19;129287;-35
2023/10/19 06:19:51;;;;;;;36.40;2.13;;;;;;;23.68;55.91;97807.47;7311234;19;129572;-35
2023/10/19 06:22:16;;;;;;;39.33;2.20;;;;;;;23.69;55.48;97806.47;7310864;19;129745;-35
2023/10/19 06:24:43;;;;;;;90.67;5.13;;;;;;;23.57;56.06;97782.59;7310743;19;130814;-35
2023/10/19 06:27:09;;;;;;;54.90;3.33;;;;;;;23.67;56.50;97809.28;7307407;19;129578;-36
2023/10/19 06:29:34;;;;;;;15.83;1.70;;;;;;;23.75;55.54;97806.47;7310779;19;129529;-35
2023/10/19 06:32:00;;;;;;;43.90;2.73;;;;;;;23.80;55.99;97811.94;7309182;19;129349;-37
2023/10/19 06:34:27;;;;;;;43.85;2.80;;;;;;;23.82;55.97;97793.38;7311029;19;129022;-35
2023/10/19 06:36:54;;;;;;;31.27;2.00;;;;;;;23.98;55.82;97804.38;7312872;19;129302;-35
2023/10/19 06:39:20;;;;;;;30.77;2.10;;;;;;;23.98;55.49;97809.63;7311992;19;130232;-35
2023/10/19 06:41:45;;;;;;;35.88;2.55;;;;;;;24.16;54.81;97796.72;7317644;19;130604;-35
2023/10/19 06:44:11;;;;;;;62.23;3.83;;;;;;;24.32;54.23;97806.88;7317980;19;129270;-34
2023/10/19 06:46:36;;;;;;;22.00;1.95;;;;;;;24.33;54.46;97810.28;7318478;19;129004;-34
2023/10/19 06:49:02;;;;;;;46.20;3.20;;;;;;;24.32;54.54;97796.38;7318182;19;130008;-35
2023/10/19 06:51:27;;;;;;;29.37;2.57;;;;;;;24.16;54.52;97782.81;7318940;19;129442;-36
2023/10/19 06:53:53;;;;;;;24.33;2.20;;;;;;;24.34;55.37;97802.22;7320040;19;129151;-35
2023/10/19 06:56:18;;;;;;;53.67;3.70;;;;;;;24.38;55.24;97797.38;7317103;19;129545;-36
2023/10/19 06:58:44;;;;;;;31.93;2.30;;;;;;;24.41;54.96;97792.53;7318180;19;130133;-35
2023/10/19 07:01:10;;;;;;;74.37;4.63;;;;;;;24.44;54.71;97797.38;7317400;19;130226;-34
2023/10/19 07:03:36;;;;;;;61.85;4.30;;;;;;;24.32;54.96;97775.34;7318661;19;128954;-33
2023/10/19 07:06:02;;;;;;;47.63;3.23;;;;;;;24.48;55.40;97790.72;7318262;19;128911;-37
2023/10/19 07:08:28;;;;;;;76.05;4.88;;;;;;;24.45;54.86;97785.88;7316070;19;130092;-36
2023/10/19 07:10:53;;;;;;;43.10;2.93;;;;;;;24.44;55.02;97781.59;7316458;19;129228;-35
2023/10/19 07:13:20;;;;;;;33.93;2.67;;;;;;;24.40;54.86;97775.16;7314398;19;128998;-36
2023/10/19 07:15:46;;;;;;;18.45;1.92;;;;;;;24.38;52.94;97769.28;7319350;19;128885;-36
2023/10/19 07:18:13;;;;;;;85.57;5.57;;;;;;;24.36;54.83;97773.94;7316215;19;129562;-36
2023/10/19 07:20:39;;;;;;;31.45;2.63;;;;;;;24.30;55.00;97781.81;7315417;19;130062;-33
2023/10/19 07:23:21;;;;;;;84.07;5.77;;;;;;;24.22;55.37;97784.63;7316175;19;129201;-34
2023/10/19 07:25:54;;;;;;;34.53;3.00;;;;;;;24.19;55.80;97774.53;7317615;19;128705;-36
2023/10/19 07:28:20;;;;;;;81.43;5.47;;;;;;;24.06;55.75;97759.56;7316794;19;130989;-36
2023/10/19 07:30:46;;;;;;;53.37;3.57;;;;;;;24.05;56.00;97752.69;7315272;19;130420;-35
2023/10/19 07:33:19;;;;;;;26.75;3.97;;;;;;;24.10;53.03;97776.53;7316203;19;129175;-35
2023/10/19 07:35:54;;;;;;;35.17;4.35;;;;;;;24.21;52.92;97781.19;7318398;19;128764;-35
2023/10/19 07:38:21;;;;;;;88.80;6.88;;;;;;;24.54;51.37;97777.78;7314609;19;131098;-36
2023/10/19 07:40:47;;;;;;;42.10;3.97;;;;;;;24.62;52.09;97782.81;7315225;19;130481;-34
2023/10/19 07:43:12;;;;;;;61.43;5.27;;;;;;;24.83;51.99;97780.00;7317272;19;132404;-34
2023/10/19 07:45:38;;;;;;;29.77;3.83;;;;;;;24.62;50.49;97767.06;7317571;19;130045;-34
2023/10/19 07:48:10;;;;;;;42.63;5.07;;;;;;;24.60;49.03;97795.34;7317594;19;130258;-36
2023/10/19 07:50:36;;;;;;;35.35;4.93;;;;;;;24.58;49.13;97792.16;7315986;19;130350;-35
2023/10/19 07:53:02;;;;;;;44.40;4.85;;;;;;;24.57;48.32;97787.88;7312407;19;130544;-36
2023/10/19 07:55:28;;;;;;;34.67;4.43;;;;;;;24.48;48.55;97783.84;7317282;19;129022;-36
2023/10/19 07:57:54;;;;;;;47.90;5.83;;;;;;;24.51;49.30;97784.22;7316483;19;129064;-36
2023/10/19 08:00:20;;;;;;;28.20;4.37;;;;;;;24.69;49.32;97775.78;7313946;19;130044;-35
2023/10/19 08:02:46;;;;;;;;;;;;;;;24.74;48.97;97783.88;7317059;19;128879;-36
2023/10/19 08:05:18;;;;;;;53.85;5.95;;;;;;;24.73;50.17;97754.16;7315590;19;129068;-36
2023/10/19 08:07:44;;;;;;;30.90;4.20;;;;;;;24.99;49.56;97775.13;7315860;19;130726;-35
2023/10/19 08:10:11;;;;;;;57.47;5.43;;;;;;;24.94;49.46;97753.13;7314580;19;130307;-36
2023/10/19 08:12:38;;;;;;;39.38;4.43;;;;;;;25.14;49.51;97773.06;7315654;19;128874;-36
2023/10/19 08:15:06;;;;;;;49.17;5.03;;;;;;;25.25;48.71;97767.19;7316111;19;131139;-34
2023/10/19 08:17:33;;;;;;;34.78;4.53;;;;;;;25.14;49.61;97761.75;7314783;19;130428;-36
2023/10/19 08:20:02;;;;;;;59.85;5.68;;;;;;;25.13;48.43;97763.59;7314814;19;130535;-35
2023/10/19 08:22:27;;;;;;;31.33;3.75;;;;;;;25.06;48.99;97756.72;7315686;19;129366;-35
2023/10/19 08:24:52;;;;;;;67.47;5.53;;;;;;;25.03;48.93;97743.97;7316087;19;129437;-35
2023/10/19 08:27:18;;;;;;;74.13;5.87;;;;;;;24.86;49.47;97742.81;7314688;19;130119;-36
2023/10/19 08:29:43;;;;;;;54.70;4.77;;;;;;;24.82;49.32;97744.22;7313351;19;129743;-35
2023/10/19 08:32:09;;;;;;;88.83;6.90;;;;;;;24.75;49.94;97746.88;7314054;19;129286;-35
2023/10/19 08:34:38;;;;;;;33.93;3.70;;;;;;;24.69;50.14;97733.75;7314938;19;128998;-34
2023/10/19 08:37:04;;;;;;;48.25;4.25;;;;;;;24.66;49.70;97711.25;7316572;19;130206;-36
2023/10/19 08:39:36;;;;;;;49.30;4.45;;;;;;;24.79;50.40;97715.72;7313016;19;131512;-34
2023/10/19 08:42:05;;;;;;;36.25;4.22;;;;;;;24.81;49.90;97711.88;7315585;19;129473;-37
2023/10/19 08:44:35;;;;;;;36.70;3.88;;;;;;;24.84;49.50;97711.47;7315642;19;129022;-34
2023/10/19 08:47:01;;;;;;;66.82;5.68;;;;;;;24.86;49.45;97713.91;7314551;19;130114;-35
2023/10/19 08:49:26;;;;;;;43.27;4.20;;;;;;;24.93;49.73;97709.41;7312485;19;130901;-34
2023/10/19 08:51:54;;;;;;;42.00;3.87;;;;;;;24.98;49.49;97712.22;7314338;19;129479;-34
2023/10/19 08:54:20;;;;;;;38.03;4.13;;;;;;;24.98;50.27;97712.22;7315358;19;128809;-35
2023/10/19 08:56:47;;;;;;;34.85;3.92;;;;;;;25.12;50.48;97708.56;7315540;19;130868;-36
2023/10/19 08:59:15;;;;;;;51.35;4.95;;;;;;;25.31;49.43;97702.41;7314791;19;131113;-36
2023/10/19 09:01:43;;;;;;;38.47;4.20;;;;;;;25.36;49.42;97705.25;7313597;19;130038;-37
2023/10/19 09:04:18;;;;;;;9.70;2.58;;;;;;;25.43;49.50;97695.50;7312768;19;129545;-37
2023/10/19 09:06:45;;;;;;;40.17;3.78;;;;;;;25.45;48.04;97693.47;7315198;19;129860;-36
2023/10/19 09:09:19;;;;;;;38.67;3.70;;;;;;;25.39;48.68;97697.75;7313417;19;129239;-36
2023/10/19 09:11:50;;;;;;;48.60;4.40;;;;;;;25.32;48.92;97688.25;7313730;19;128975;-36
2023/10/19 09:14:30;;;;;;;28.30;3.58;;;;;;;25.64;49.27;97679.38;7314857;19;128990;-35
2023/10/19 09:16:56;;;;;;;70.97;5.65;;;;;;;25.55;49.04;97683.31;7311647;19;129737;-35
2023/10/19 09:19:37;;;;;;;;;;;;;;;25.42;47.78;97659.69;7313722;19;130645;-35
2023/10/19 09:22:07;;;;;;;44.42;3.95;;;;;;;25.38;49.07;97671.66;7315363;19;129252;-36
2023/10/19 09:24:36;;;;;;;39.47;3.78;;;;;;;25.35;48.48;97672.06;7312904;19;129081;-35
2023/10/19 09:27:04;;;;;;;46.42;4.15;;;;;;;25.35;48.70;97670.22;7314810;19;129427;-33
2023/10/19 09:29:31;;;;;;;62.00;4.85;;;;;;;25.31;48.67;97686.63;7310826;19;130358;-33
2023/10/19 09:32:02;;;;;;;57.35;4.75;;;;;;;25.27;48.95;97680.97;7314300;19;129191;-36
2023/10/19 09:34:32;;;;;;;70.45;5.72;;;;;;;25.05;51.62;97673.59;7312939;19;129040;-35
2023/10/19 09:37:02;;;;;;;47.67;4.88;;;;;;;24.85;52.19;97664.94;7311465;19;129492;-35
2023/10/19 09:39:35;;;;;;;96.55;6.82;;;;;;;24.82;51.94;97675.88;7309914;19;130551;-35
2023/10/19 09:42:05;;;;;;;143.60;9.32;;;;;;;24.77;52.01;97673.06;7310812;19;130007;-32
2023/10/19 09:44:36;;;;;;;44.83;4.30;;;;;;;24.77;52.65;97673.88;7311424;19;132295;-37
2023/10/19 09:47:03;;;;;;;27.02;3.65;;;;;;;24.71;52.40;97663.41;7310759;19;130210;-35
2023/10/19 09:49:30;;;;;;;74.68;6.07;;;;;;;24.79;53.16;97661.31;7309167;19;130271;-36
2023/10/19 09:51:55;;;;;;;77.22;5.57;;;;;;;24.84;52.63;97655.47;7310782;19;129344;-36
2023/10/19 09:54:33;;;;;;;80.70;5.90;;;;;;;24.94;52.46;97664.50;7312598;19;131299;-35
2023/10/19 09:57:05;;;;;;;47.45;4.30;;;;;;;25.01;52.42;97656.59;7311042;19;130276;-33
2023/10/19 09:59:44;;;;;;;45.55;4.15;;;;;;;25.08;53.11;97650.31;7308647;19;130255;-36
2023/10/19 10:02:12;;;;;;;32.40;3.60;;;;;;;25.13;52.76;97639.16;7312041;19;128956;-36
2023/10/19 10:04:39;;;;;;;47.03;4.30;;;;;;;25.18;52.67;97655.13;7309451;19;129011;-35
2023/10/19 10:07:07;;;;;;;83.18;5.78;;;;;;;25.09;52.40;97630.09;7310913;19;130295;-35
2023/10/19 10:09:40;;;;;;;38.47;4.05;;;;;;;25.27;52.83;97653.88;7309031;19;130561;-35
2023/10/19 10:12:23;;;;;;;30.23;3.17;;;;;;;25.26;52.74;97652.25;7311683;19;130089;-34
2023/10/19 10:14:59;;;;;;;35.88;3.58;;;;;;;25.34;52.41;97655.44;7310219;19;130578;-36
2023/10/19 10:17:27;;;;;;;49.38;4.47;;;;;;;25.29;52.82;97646.56;7308621;19;130081;-35
2023/10/19 10:20:18;;;;;;;59.92;4.50;;;;;;;25.24;53.49;97643.75;7307388;19;130700;-34
2023/10/19 10:22:44;;;;;;;67.47;5.93;;;;;;;25.17;53.51;97637.75;7310935;19;129838;-35
2023/10/19 10:25:27;;;;;;;62.07;4.77;;;;;;;25.09;53.51;97630.09;7311600;19;128912;-36
2023/10/19 10:27:53;;;;;;;59.15;4.85;;;;;;;24.90;53.99;97594.97;7309367;19;130228;-35
2023/10/19 10:30:18;;;;;;;57.20;4.67;;;;;;;24.97;54.36;97610.72;7309413;19;129647;-35
2023/10/19 10:32:50;;;;;;;32.47;3.37;;;;;;;24.92;54.25;97607.91;7307812;19;129330;-36
2023/10/19 10:35:38;;;;;;;59.78;4.22;;;;;;;24.86;54.76;97608.75;7309884;19;129336;-35
2023/10/19 10:38:13;;;;;;;69.18;5.20;;;;;;;24.80;54.88;97609.56;7309990;19;131052;-34
2023/10/19 10:40:51;;;;;;;74.18;5.15;;;;;;;24.78;54.62;97603.72;7307890;19;130388;-34
2023/10/19 10:43:18;;;;;;;69.25;5.03;;;;;;;24.75;55.55;97607.56;7306908;19;129523;-36
2023/10/19 10:45:44;;;;;;;30.63;3.50;;;;;;;24.82;54.95;97599.66;7309350;19;129281;-35
2023/10/19 10:48:17;;;;;;;39.57;3.63;;;;;;;24.89;54.45;97598.59;7308991;19;130051;-35
2023/10/19 10:50:43;;;;;;;54.97;4.43;;;;;;;24.91;55.12;97591.31;7308009;19;130396;-35
2023/10/19 10:53:11;;;;;;;82.55;5.35;;;;;;;24.99;55.03;97593.72;7308752;19;129420;-35
2023/10/19 10:55:37;;;;;;;32.13;3.38;;;;;;;24.91;54.60;97565.03;7309250;19;129172;-35
2023/10/19 10:58:02;;;;;;;23.93;2.83;;;;;;;25.09;54.34;97593.28;7309224;19;129449;-36
2023/10/19 11:00:28;;;;;;;88.17;6.63;;;;;;;25.14;54.84;97590.81;7305771;19;130056;-35
2023/10/19 11:03:04;;;;;;;63.30;4.63;;;;;;;25.19;54.33;97589.16;7309526;19;129013;-35
2023/10/19 11:05:31;;;;;;;74.65;5.03;;;;;;;25.25;53.98;97590.16;7309227;19;129234;-34
2023/10/19 11:08:13;;;;;;;36.63;3.30;;;;;;;25.29;54.20;97584.25;7309343;19;130094;-36
2023/10/19 11:10:42;;;;;;;36.35;3.53;;;;;;;25.37;54.03;97589.28;7306610;19;131197;-35
2023/10/19 11:13:09;;;;;;;18.10;2.55;;;;;;;25.34;54.20;97583.59;7307621;19;129827;-34
2023/10/19 11:15:36;;;;;;;120.75;7.63;;;;;;;25.23;53.87;97564.06;7307999;19;130299;-35
2023/10/19 11:18:02;;;;;;;50.33;4.22;;;;;;;25.26;54.90;97591.75;7305745;19;130920;-36
2023/10/19 11:20:28;;;;;;;56.53;4.87;;;;;;;25.20;54.77;97579.47;7306506;19;131614;-35
2023/10/19 11:23:00;;;;;;;46.53;3.70;;;;;;;25.12;54.95;97571.81;7308964;19;129140;-36
2023/10/19 11:25:28;;;;;;;95.75;6.10;;;;;;;25.06;54.94;97567.38;7308507;19;129188;-34
2023/10/19 11:27:54;;;;;;;38.78;3.50;;;;;;;25.01;55.51;97577.72;7313486;19;130817;-36
2023/10/19 11:30:24;;;;;;;;;;;;;;;24.85;52.54;97578.22;7313276;19;131125;-35
2023/10/19 11:32:52;;;;;;;35.92;4.57;;;;;;;24.68;50.42;97579.69;7314037;19;129325;-35
2023/10/19 11:35:21;;;;;;;37.33;4.60;;;;;;;24.59;51.53;97580.91;7314341;19;130988;-36
2023/10/19 11:37:47;;;;;;;62.28;5.57;;;;;;;24.62;52.11;97567.34;7315338;19;130116;-36